createdAt,value
2022-10-19T00:01:23.830Z,56.50
2022-10-19T00:03:56.426Z,56.50
2022-10-19T00:06:26.689Z,56.50
2022-10-19T00:08:55.881Z,56.60
2022-10-19T00:11:24.836Z,56.70
2022-10-19T00:13:55.970Z,56.60
2022-10-19T00:16:28.193Z,56.60
2022-10-19T00:18:58.572Z,56.50
2022-10-19T00:21:27.266Z,56.70
2022-10-19T00:23:55.844Z,56.70
2022-10-19T00:26:24.170Z,56.80
2022-10-19T00:28:57.181Z,56.90
2022-10-19T00:31:25.906Z,57.00
2022-10-19T00:33:56.446Z,57.00
2022-10-19T00:36:27.065Z,57.30
2022-10-19T00:38:58.799Z,57.30
2022-10-19T00:41:29.298Z,57.40
2022-10-19T00:44:02.766Z,57.40
2022-10-19T00:46:33.560Z,57.50
2022-10-19T00:49:10.736Z,57.50
2022-10-19T00:51:44.710Z,57.60
2022-10-19T00:54:13.689Z,57.80
2022-10-19T00:56:43.910Z,57.90
2022-10-19T00:59:17.626Z,57.90
2022-10-19T01:01:46.859Z,58.10
2022-10-19T01:04:16.008Z,57.90
2022-10-19T01:06:44.317Z,57.80
2022-10-19T01:09:12.662Z,57.80
2022-10-19T01:11:46.954Z,57.90
2022-10-19T01:14:33.954Z,58.00
2022-10-19T01:17:14.188Z,58.00
2022-10-19T01:20:09.604Z,58.10
2022-10-19T01:22:55.869Z,58.20
2022-10-19T01:25:25.655Z,58.10
2022-10-19T01:28:08.347Z,58.10
2022-10-19T01:30:48.552Z,58.10
2022-10-19T01:33:31.382Z,58.00
2022-10-19T01:36:09.229Z,58.00
2022-10-19T01:38:42.168Z,57.80
2022-10-19T01:41:17.529Z,57.80
2022-10-19T01:43:51.949Z,57.90
2022-10-19T01:46:27.029Z,58.00
2022-10-19T01:49:00.080Z,58.00
2022-10-19T01:51:34.131Z,58.30
2022-10-19T01:54:06.728Z,58.40
2022-10-19T01:56:36.765Z,58.50
2022-10-19T01:59:08.420Z,58.50
2022-10-19T02:01:42.280Z,58.60
2022-10-19T02:04:12.278Z,58.50
2022-10-19T02:06:40.885Z,58.50
2022-10-19T02:09:09.254Z,58.40
2022-10-19T02:11:39.189Z,58.40
2022-10-19T02:14:12.803Z,58.40
2022-10-19T02:16:48.659Z,58.30
2022-10-19T02:19:19.137Z,58.30
2022-10-19T02:21:51.435Z,58.20
2022-10-19T02:24:19.893Z,58.10
2022-10-19T02:26:48.225Z,58.00
2022-10-19T02:29:18.838Z,58.00
2022-10-19T02:31:48.650Z,58.00
2022-10-19T02:34:16.968Z,57.80
2022-10-19T02:36:45.401Z,57.70
2022-10-19T02:39:13.715Z,57.50
2022-10-19T02:41:50.015Z,57.30
2022-10-19T02:44:24.843Z,57.10
2022-10-19T02:46:59.885Z,56.80
2022-10-19T02:49:28.709Z,56.60
2022-10-19T02:52:00.344Z,56.30
2022-10-19T02:54:29.096Z,56.00
2022-10-19T02:56:57.893Z,55.80
2022-10-19T02:59:26.392Z,55.50
2022-10-19T03:01:56.069Z,55.60
2022-10-19T03:04:24.282Z,55.40
2022-10-19T03:06:52.607Z,55.30
2022-10-19T03:09:21.056Z,55.20
2022-10-19T03:11:49.262Z,55.20
2022-10-19T03:14:17.450Z,55.30
2022-10-19T03:16:45.716Z,55.20
2022-10-19T03:19:15.441Z,55.20
2022-10-19T03:21:43.700Z,55.20
2022-10-19T03:24:12.077Z,55.20
2022-10-19T03:26:40.318Z,55.30
2022-10-19T03:29:08.527Z,55.40
2022-10-19T03:31:37.015Z,55.40
2022-10-19T03:34:05.188Z,55.60
2022-10-19T03:36:36.432Z,55.50
2022-10-19T03:39:08.054Z,55.60
2022-10-19T03:41:37.966Z,55.70
2022-10-19T03:44:06.716Z,55.70
2022-10-19T03:46:35.540Z,55.70
2022-10-19T03:49:04.215Z,55.80
2022-10-19T03:51:34.401Z,55.90
2022-10-19T03:54:08.147Z,55.80
2022-10-19T03:56:37.292Z,55.90
2022-10-19T03:59:07.361Z,56.00
2022-10-19T04:01:37.508Z,56.20
2022-10-19T04:04:08.614Z,56.20
2022-10-19T04:06:39.774Z,56.30
2022-10-19T04:09:13.291Z,56.40
2022-10-19T04:11:41.649Z,56.40
2022-10-19T04:16:43.530Z,56.60
2022-10-19T04:19:16.114Z,56.70
2022-10-19T04:21:49.076Z,56.70
2022-10-19T04:24:20.245Z,56.80
2022-10-19T04:26:52.658Z,56.80
2022-10-19T04:29:26.281Z,57.00
2022-10-19T04:31:57.874Z,57.00
2022-10-19T04:34:26.031Z,57.20
2022-10-19T04:36:59.583Z,57.40
2022-10-19T04:39:27.973Z,57.90
2022-10-19T04:41:56.328Z,58.30
2022-10-19T04:47:00.101Z,58.60
2022-10-19T04:49:30.435Z,58.90
2022-10-19T04:52:02.170Z,59.10
2022-10-19T04:54:30.473Z,59.20
2022-10-19T04:56:58.648Z,59.30
2022-10-19T04:59:26.957Z,59.50
2022-10-19T05:01:55.144Z,59.60
2022-10-19T05:04:23.373Z,59.70
2022-10-19T05:06:51.583Z,59.90
2022-10-19T05:09:21.196Z,60.10
2022-10-19T05:11:51.257Z,60.20
2022-10-19T05:14:19.487Z,60.30
2022-10-19T05:16:47.828Z,60.30
2022-10-19T05:19:16.059Z,60.40
2022-10-19T05:21:44.362Z,60.50
2022-10-19T05:24:13.888Z,60.50
2022-10-19T05:26:43.524Z,60.70
2022-10-19T05:29:14.228Z,60.80
2022-10-19T05:31:42.854Z,60.80
2022-10-19T05:34:11.220Z,60.80
2022-10-19T05:36:40.995Z,60.70
2022-10-19T05:39:15.745Z,60.70
2022-10-19T05:41:47.382Z,60.70
2022-10-19T05:44:19.837Z,60.60
2022-10-19T05:46:51.937Z,60.70
2022-10-19T05:49:22.224Z,60.70
2022-10-19T05:51:51.848Z,60.80
2022-10-19T05:54:22.691Z,60.90
2022-10-19T05:56:54.718Z,61.00
2022-10-19T05:59:23.649Z,61.10
2022-10-19T06:01:51.937Z,61.20
2022-10-19T06:04:20.224Z,61.30
2022-10-19T06:06:48.461Z,61.70
2022-10-19T06:09:16.618Z,61.90
2022-10-19T06:11:45.134Z,62.00
2022-10-19T06:14:16.792Z,61.90
2022-10-19T06:16:46.400Z,61.90
2022-10-19T06:19:14.931Z,61.90
2022-10-19T06:21:45.815Z,61.70
2022-10-19T06:24:14.667Z,61.80
2022-10-19T06:26:45.403Z,61.70
2022-10-19T06:29:17.408Z,61.00
2022-10-19T06:31:46.401Z,59.90
2022-10-19T06:34:14.724Z,58.80
2022-10-19T06:36:42.941Z,57.40
2022-10-19T06:39:11.235Z,56.60
2022-10-19T06:41:39.496Z,55.60
2022-10-19T06:44:21.232Z,54.80
2022-10-19T06:46:49.362Z,54.30
2022-10-19T06:49:17.449Z,53.50
2022-10-19T06:51:49.874Z,52.30
2022-10-19T06:54:18.192Z,52.70
2022-10-19T06:56:46.518Z,52.60
2022-10-19T06:59:15.135Z,52.20
2022-10-19T07:01:44.782Z,51.00
2022-10-19T07:04:13.230Z,50.30
2022-10-19T07:06:41.618Z,49.50
2022-10-19T07:09:10.405Z,49.10
2022-10-19T07:11:45.562Z,48.80
2022-10-19T07:14:16.984Z,48.10
2022-10-19T07:16:51.108Z,47.50
2022-10-19T07:19:19.355Z,47.30
2022-10-19T07:21:47.394Z,47.70
2022-10-19T07:24:18.045Z,48.50
2022-10-19T07:26:46.163Z,49.40
2022-10-19T07:29:14.222Z,49.90
2022-10-19T07:31:42.972Z,50.40
2022-10-19T07:34:15.239Z,50.70
2022-10-19T07:36:45.619Z,51.00
2022-10-19T07:39:13.907Z,51.00
2022-10-19T07:41:42.014Z,51.30
2022-10-19T07:44:12.143Z,51.50
2022-10-19T07:46:44.136Z,51.50
2022-10-19T07:49:19.002Z,51.60
2022-10-19T07:51:47.380Z,51.70
2022-10-19T07:54:15.520Z,51.70
2022-10-19T07:56:43.771Z,51.80
2022-10-19T07:59:14.402Z,51.20
2022-10-19T08:01:43.918Z,50.70
2022-10-19T08:07:03.863Z,50.90
2022-10-19T08:09:52.082Z,51.00
2022-10-19T08:12:20.057Z,50.00
2022-10-19T08:14:48.706Z,50.50
2022-10-19T08:17:17.818Z,49.50
2022-10-19T08:19:47.107Z,48.60
2022-10-19T08:22:16.636Z,48.40
2022-10-19T08:24:44.910Z,47.60
2022-10-19T08:27:14.818Z,47.00
2022-10-19T08:29:43.071Z,47.00
2022-10-19T08:32:13.464Z,46.40
2022-10-19T08:34:42.004Z,45.60
2022-10-19T08:37:25.842Z,45.00
2022-10-19T08:40:02.110Z,44.30
2022-10-19T08:42:41.502Z,43.60
2022-10-19T08:45:29.529Z,44.30
2022-10-19T08:48:11.315Z,43.20
2022-10-19T08:50:42.010Z,43.30
2022-10-19T08:53:14.625Z,44.10
2022-10-19T08:55:53.582Z,43.50
2022-10-19T08:58:46.735Z,42.30
2022-10-19T09:01:23.914Z,42.40
2022-10-19T09:04:00.099Z,41.90
2022-10-19T09:06:33.445Z,42.40
2022-10-19T09:09:01.969Z,42.00
2022-10-19T09:11:36.670Z,42.60
2022-10-19T09:14:12.141Z,43.20
2022-10-19T09:16:40.616Z,41.50
2022-10-19T09:19:25.759Z,41.20
2022-10-19T09:21:59.149Z,40.40
2022-10-19T09:24:35.238Z,40.80
2022-10-19T09:27:06.556Z,41.50
2022-10-19T09:29:40.976Z,41.30
2022-10-19T09:32:15.697Z,40.30
2022-10-19T09:34:47.453Z,40.60
2022-10-19T09:37:23.182Z,40.00
2022-10-19T09:39:56.300Z,40.20
2022-10-19T09:42:29.523Z,40.00
2022-10-19T09:45:00.190Z,39.50
2022-10-19T09:47:35.261Z,38.70
2022-10-19T09:50:25.785Z,38.80
2022-10-19T09:52:56.458Z,38.20
2022-10-19T09:55:30.592Z,38.40
2022-10-19T09:58:06.525Z,38.20
2022-10-19T10:00:38.123Z,37.70
2022-10-19T10:03:07.685Z,37.30
2022-10-19T10:05:38.793Z,37.30
2022-10-19T10:08:15.732Z,37.30
2022-10-19T10:11:05.166Z,37.90
2022-10-19T10:13:38.704Z,37.90
2022-10-19T10:16:10.477Z,37.70
2022-10-19T10:21:35.838Z,36.80
2022-10-19T10:24:06.911Z,37.20
2022-10-19T10:26:40.449Z,36.60
2022-10-19T10:29:20.876Z,36.20
2022-10-19T10:31:52.815Z,36.00
2022-10-19T10:34:50.230Z,36.10
2022-10-19T10:37:23.632Z,36.50
2022-10-19T10:39:57.866Z,36.30
2022-10-19T10:42:33.223Z,35.90
2022-10-19T10:45:04.033Z,36.00
2022-10-19T10:47:35.205Z,36.00
2022-10-19T10:50:08.702Z,35.10
2022-10-19T10:52:37.343Z,34.90
2022-10-19T10:55:18.021Z,35.00
2022-10-19T10:57:49.121Z,34.80
2022-10-19T11:00:21.832Z,35.00
2022-10-19T11:02:57.340Z,35.30
2022-10-19T11:05:28.245Z,35.50
2022-10-19T11:08:02.594Z,35.20
2022-10-19T11:10:35.289Z,35.70
2022-10-19T11:13:11.679Z,35.60
2022-10-19T11:15:51.451Z,35.40
2022-10-19T11:18:24.893Z,35.40
2022-10-19T11:21:02.663Z,35.00
2022-10-19T11:23:45.478Z,33.60
2022-10-19T11:26:28.228Z,32.50
2022-10-19T11:29:16.416Z,32.60
2022-10-19T11:31:51.126Z,34.20
2022-10-19T11:34:37.126Z,34.30
2022-10-19T11:37:15.699Z,33.30
2022-10-19T11:39:58.519Z,32.20
2022-10-19T11:45:25.170Z,30.60
2022-10-19T11:48:07.069Z,30.80
2022-10-19T11:50:53.777Z,31.00
2022-10-19T11:53:37.068Z,30.80
2022-10-19T11:56:10.401Z,33.10
2022-10-19T11:58:49.709Z,33.90
2022-10-19T12:01:28.215Z,33.70
2022-10-19T12:04:16.475Z,33.60
2022-10-19T12:06:53.587Z,33.10
2022-10-19T12:09:30.883Z,34.30
2022-10-19T12:12:15.663Z,34.30
2022-10-19T12:14:48.017Z,34.50
2022-10-19T12:17:23.296Z,34.50
2022-10-19T12:19:58.379Z,34.10
2022-10-19T12:22:29.854Z,34.50
2022-10-19T12:24:59.879Z,34.40
2022-10-19T12:27:33.415Z,34.30
2022-10-19T12:30:06.966Z,34.80
2022-10-19T12:32:44.233Z,34.80
2022-10-19T12:35:29.110Z,35.20
2022-10-19T12:38:01.286Z,34.80
2022-10-19T12:40:38.994Z,35.30
2022-10-19T12:43:15.241Z,34.80
2022-10-19T12:45:49.010Z,34.40
2022-10-19T12:48:25.613Z,34.50
2022-10-19T12:51:05.863Z,34.60
2022-10-19T12:53:38.243Z,34.70
2022-10-19T12:56:08.962Z,34.60
2022-10-19T12:58:47.841Z,34.40
2022-10-19T13:01:21.152Z,34.30
2022-10-19T13:03:52.532Z,34.60
2022-10-19T13:06:33.740Z,34.50
2022-10-19T13:09:04.780Z,34.50
2022-10-19T13:14:08.884Z,34.70
2022-10-19T13:16:59.677Z,34.80
2022-10-19T13:19:30.513Z,34.50
2022-10-19T13:22:22.561Z,34.80
2022-10-19T13:25:32.773Z,34.70
2022-10-19T13:28:40.900Z,34.50
2022-10-19T13:31:25.650Z,35.00
2022-10-19T13:33:55.559Z,34.70
2022-10-19T13:36:25.301Z,34.80
2022-10-19T13:39:15.008Z,35.00
2022-10-19T13:41:47.592Z,35.10
2022-10-19T13:44:29.013Z,35.00
2022-10-19T13:47:12.474Z,35.40
2022-10-19T13:49:59.122Z,35.70
2022-10-19T13:52:51.184Z,35.90
2022-10-19T13:55:49.206Z,35.50
2022-10-19T13:58:50.792Z,35.30
2022-10-19T14:01:31.338Z,35.50
2022-10-19T14:04:15.131Z,35.80
2022-10-19T14:06:49.005Z,36.30
2022-10-19T14:09:36.586Z,36.30
2022-10-19T14:12:09.136Z,36.40
2022-10-19T14:17:20.198Z,36.20
2022-10-19T14:19:52.701Z,36.70
2022-10-19T14:22:27.224Z,36.40
2022-10-19T14:25:02.496Z,36.60
2022-10-19T14:27:31.044Z,36.40
2022-10-19T14:29:59.469Z,36.50
2022-10-19T14:32:30.724Z,36.60
2022-10-19T14:37:33.599Z,36.60
2022-10-19T14:40:08.460Z,36.50
2022-10-19T14:42:42.870Z,36.20
2022-10-19T14:45:15.253Z,36.50
2022-10-19T14:47:56.510Z,36.30
2022-10-19T14:50:29.570Z,36.30
2022-10-19T14:52:59.703Z,36.70
2022-10-19T14:55:31.256Z,36.70
2022-10-19T14:57:59.625Z,36.90
2022-10-19T15:00:27.700Z,36.70
2022-10-19T15:03:00.641Z,36.80
2022-10-19T15:05:32.577Z,37.20
2022-10-19T15:08:08.973Z,37.50
2022-10-19T15:10:44.010Z,37.80
2022-10-19T15:13:24.017Z,37.90
2022-10-19T15:15:53.330Z,38.10
2022-10-19T15:18:44.099Z,38.30
2022-10-19T15:21:15.137Z,38.60
2022-10-19T15:23:45.312Z,38.50
2022-10-19T15:26:20.442Z,38.50
2022-10-19T15:28:49.724Z,38.70
2022-10-19T15:31:20.684Z,38.80
2022-10-19T15:33:52.481Z,38.80
2022-10-19T15:36:22.611Z,39.30
2022-10-19T15:39:11.823Z,39.30
2022-10-19T15:41:50.418Z,39.40
2022-10-19T15:44:41.225Z,39.50
2022-10-19T15:47:23.018Z,39.90
2022-10-19T15:49:58.679Z,40.20
2022-10-19T15:52:28.179Z,40.50
2022-10-19T15:54:58.313Z,40.70
2022-10-19T15:57:32.342Z,40.90
2022-10-19T16:00:08.691Z,41.00
2022-10-19T16:02:39.105Z,41.30
2022-10-19T16:05:10.213Z,41.70
2022-10-19T16:07:42.431Z,42.00
2022-10-19T16:10:17.244Z,41.80
2022-10-19T16:12:45.642Z,42.00
2022-10-19T16:15:14.019Z,41.80
2022-10-19T16:17:42.611Z,41.70
2022-10-19T16:20:18.748Z,41.50
2022-10-19T16:22:48.097Z,41.60
2022-10-19T16:25:16.426Z,41.90
2022-10-19T16:27:44.805Z,41.50
2022-10-19T16:30:13.889Z,41.60
2022-10-19T16:35:19.065Z,41.80
2022-10-19T16:37:49.137Z,41.90
2022-10-19T16:40:17.255Z,42.20
2022-10-19T16:42:45.426Z,42.30
2022-10-19T16:45:13.946Z,42.40
2022-10-19T16:47:42.091Z,42.50
2022-10-19T16:50:12.189Z,42.70
2022-10-19T16:52:41.903Z,42.70
2022-10-19T16:55:10.401Z,42.80
2022-10-19T16:57:38.765Z,42.80
2022-10-19T17:00:10.149Z,42.90
2022-10-19T17:02:41.921Z,42.90
2022-10-19T17:05:12.919Z,43.00
2022-10-19T17:07:44.734Z,43.00
2022-10-19T17:10:13.129Z,43.10
2022-10-19T17:12:41.801Z,43.60
2022-10-19T17:15:40.856Z,43.40
2022-10-19T17:17:59.385Z,43.60
2022-10-19T17:20:27.600Z,43.80
2022-10-19T17:22:59.302Z,44.10
2022-10-19T17:25:27.599Z,44.00
2022-10-19T17:27:55.781Z,43.90
2022-10-19T17:30:26.153Z,43.80
2022-10-19T17:32:54.357Z,44.00
2022-10-19T17:35:22.629Z,44.10
2022-10-19T17:37:50.921Z,44.40
2022-10-19T17:40:20.537Z,44.60
2022-10-19T17:42:48.886Z,44.60
2022-10-19T17:45:17.308Z,44.70
2022-10-19T17:47:45.542Z,44.90
2022-10-19T17:50:13.784Z,45.50
2022-10-19T17:52:42.034Z,46.00
2022-10-19T17:55:12.772Z,46.00
2022-10-19T17:57:43.097Z,45.80
2022-10-19T18:00:14.725Z,45.90
2022-10-19T18:02:45.675Z,45.60
2022-10-19T18:05:14.041Z,45.50
2022-10-19T18:07:44.839Z,45.50
2022-10-19T18:10:14.562Z,45.50
2022-10-19T18:12:44.449Z,45.70
2022-10-19T18:15:12.766Z,45.90
2022-10-19T18:17:41.046Z,45.90
2022-10-19T18:20:10.701Z,45.90
2022-10-19T18:22:39.104Z,46.10
2022-10-19T18:25:08.347Z,46.20
2022-10-19T18:27:36.929Z,46.10
2022-10-19T18:30:10.094Z,46.20
2022-10-19T18:32:39.362Z,46.40
2022-10-19T18:35:08.945Z,46.40
2022-10-19T18:37:37.284Z,46.60
2022-10-19T18:40:06.070Z,46.70
2022-10-19T18:42:34.689Z,46.90
2022-10-19T18:45:03.416Z,47.00
2022-10-19T18:47:33.126Z,47.00
2022-10-19T18:50:01.564Z,47.20
2022-10-19T18:52:29.952Z,47.50
2022-10-19T18:54:58.237Z,47.50
2022-10-19T18:57:31.721Z,48.10
2022-10-19T19:00:02.558Z,48.50
2022-10-19T19:02:46.357Z,49.20
2022-10-19T19:05:15.564Z,49.70
2022-10-19T19:07:43.961Z,50.30
2022-10-19T19:10:13.072Z,50.60
2022-10-19T19:12:42.173Z,51.40
2022-10-19T19:15:13.288Z,52.00
2022-10-19T19:17:42.922Z,51.70
2022-10-19T19:20:11.565Z,51.40
2022-10-19T19:22:39.882Z,51.20
2022-10-19T19:25:08.747Z,51.10
2022-10-19T19:30:11.467Z,51.60
2022-10-19T19:32:39.901Z,51.60
2022-10-19T19:35:10.145Z,52.00
2022-10-19T19:37:38.557Z,50.90
2022-10-19T19:40:11.054Z,51.10
2022-10-19T19:42:39.280Z,50.50
2022-10-19T19:45:08.620Z,50.40
2022-10-19T19:47:37.227Z,50.20
2022-10-19T19:50:06.163Z,50.60
2022-10-19T19:52:40.395Z,50.80
2022-10-19T19:55:09.569Z,50.90
2022-10-19T19:57:38.197Z,50.80
2022-10-19T20:00:07.567Z,51.10
2022-10-19T20:02:39.716Z,50.10
2022-10-19T20:05:12.823Z,50.00
2022-10-19T20:07:42.554Z,49.90
2022-10-19T20:10:11.047Z,50.20
2022-10-19T20:12:39.773Z,50.70
2022-10-19T20:15:08.870Z,50.70
2022-10-19T20:17:39.719Z,50.60
2022-10-19T20:20:09.836Z,50.70
2022-10-19T20:22:39.044Z,50.50
2022-10-19T20:25:09.956Z,50.30
2022-10-19T20:27:38.348Z,50.20
2022-10-19T20:30:08.289Z,50.20
2022-10-19T20:32:40.122Z,50.20
2022-10-19T20:35:08.772Z,50.10
2022-10-19T20:37:37.081Z,50.40
2022-10-19T20:40:08.826Z,50.40
2022-10-19T20:42:38.900Z,50.30
2022-10-19T20:45:07.514Z,50.20
2022-10-19T20:47:35.800Z,50.20
2022-10-19T20:52:32.578Z,51.00
2022-10-19T20:55:00.976Z,51.30
2022-10-19T20:57:29.236Z,51.50
2022-10-19T20:59:58.864Z,51.60
2022-10-19T21:02:27.135Z,51.90
2022-10-19T21:04:55.397Z,52.90
2022-10-19T21:07:25.756Z,53.40
2022-10-19T21:09:55.787Z,53.60
2022-10-19T21:12:24.013Z,53.40
2022-10-19T21:14:52.285Z,53.50
2022-10-19T21:17:24.247Z,53.90
2022-10-19T21:19:57.099Z,54.00
2022-10-19T21:22:25.699Z,53.80
2022-10-19T21:24:53.999Z,54.30
2022-10-19T21:27:22.279Z,54.90
2022-10-19T21:29:50.578Z,54.80
2022-10-19T21:32:18.950Z,54.60
2022-10-19T21:34:48.629Z,54.20
2022-10-19T21:37:16.942Z,53.90
2022-10-19T21:39:45.456Z,53.60
2022-10-19T21:42:14.605Z,53.40
2022-10-19T21:44:42.830Z,53.60
2022-10-19T21:47:11.115Z,53.60
2022-10-19T21:49:39.448Z,54.00
2022-10-19T21:52:12.564Z,54.30
2022-10-19T21:54:44.222Z,54.80
2022-10-19T21:57:12.299Z,55.00
2022-10-19T21:59:40.644Z,55.20
2022-10-19T22:02:09.019Z,55.10
2022-10-19T22:04:37.377Z,55.00
2022-10-19T22:07:05.742Z,54.90
2022-10-19T22:09:35.327Z,55.20
2022-10-19T22:12:03.706Z,55.50
2022-10-19T22:14:32.034Z,55.80
2022-10-19T22:17:00.249Z,55.90
2022-10-19T22:19:28.683Z,56.20
2022-10-19T22:21:57.009Z,56.60
2022-10-19T22:24:25.295Z,56.70
2022-10-19T22:26:54.951Z,56.90
2022-10-19T22:29:25.119Z,57.00
2022-10-19T22:31:53.393Z,57.90
2022-10-19T22:34:21.595Z,57.10
2022-10-19T22:36:49.901Z,56.80
2022-10-19T22:39:18.285Z,56.70
2022-10-19T22:41:49.074Z,57.20
2022-10-19T22:44:18.749Z,57.60
2022-10-19T22:46:49.023Z,57.60
2022-10-19T22:49:17.260Z,57.70
2022-10-19T22:51:45.589Z,57.60
2022-10-19T22:54:13.940Z,57.60
2022-10-19T22:56:44.414Z,57.70
2022-10-19T22:59:12.804Z,58.00
2022-10-19T23:01:42.499Z,58.10
2022-10-19T23:04:13.296Z,58.20
2022-10-19T23:06:44.086Z,58.50
2022-10-19T23:09:14.924Z,58.50
2022-10-19T23:11:43.149Z,58.60
2022-10-19T23:14:11.468Z,58.80
2022-10-19T23:16:39.708Z,58.80
2022-10-19T23:19:09.442Z,58.80
2022-10-19T23:21:37.780Z,58.80
2022-10-19T23:24:08.385Z,58.90
2022-10-19T23:26:37.674Z,59.00
2022-10-19T23:29:05.920Z,59.30
2022-10-19T23:31:34.234Z,59.80
2022-10-19T23:34:02.857Z,59.30
2022-10-19T23:36:32.673Z,59.20
2022-10-19T23:39:01.166Z,58.90
2022-10-19T23:41:29.374Z,59.00
2022-10-19T23:43:57.663Z,59.20
2022-10-19T23:46:25.955Z,59.30
2022-10-19T23:48:54.266Z,59.30
2022-10-19T23:51:23.546Z,59.20
2022-10-19T23:53:55.566Z,59.10
2022-10-19T23:56:25.542Z,59.20
2022-10-19T23:58:54.660Z,59.30
